createdAt,value
2022-08-22T00:00:18.199Z,0.00
2022-08-22T00:01:23.848Z,0.00
2022-08-22T00:02:26.976Z,0.00
2022-08-22T00:02:42.498Z,0.00
2022-08-22T00:02:54.492Z,0.00
2022-08-22T00:02:57.557Z,0.00
2022-08-22T00:03:01.450Z,0.00
2022-08-22T00:03:04.187Z,0.00
2022-08-22T00:03:09.767Z,0.00
2022-08-22T00:03:31.330Z,0.00
2022-08-22T00:04:35.709Z,0.00
2022-08-22T00:05:40.111Z,0.00
2022-08-22T00:06:44.480Z,0.00
2022-08-22T00:07:48.861Z,0.00
2022-08-22T00:08:53.238Z,0.00
2022-08-22T00:09:57.611Z,0.00
2022-08-22T00:11:02.032Z,0.00
2022-08-22T00:12:06.412Z,0.00
2022-08-22T00:13:10.783Z,0.00
2022-08-22T00:14:15.161Z,0.00
2022-08-22T00:15:43.708Z,0.00
2022-08-22T00:16:23.968Z,0.00
2022-08-22T00:17:28.347Z,0.00
2022-08-22T00:18:32.737Z,0.00
2022-08-22T00:19:37.103Z,0.00
2022-08-22T00:20:41.504Z,0.00
2022-08-22T00:21:45.881Z,0.00
2022-08-22T00:22:50.263Z,0.00
2022-08-22T00:23:54.644Z,0.00
2022-08-22T00:24:59.041Z,0.00
2022-08-22T00:26:03.443Z,0.00
2022-08-22T00:27:07.825Z,0.00
2022-08-22T00:28:12.197Z,0.00
2022-08-22T00:29:16.585Z,0.00
2022-08-22T00:30:20.955Z,0.00
2022-08-22T00:31:25.381Z,0.00
2022-08-22T00:32:29.754Z,0.00
2022-08-22T00:33:34.138Z,0.00
2022-08-22T00:34:38.514Z,0.00
2022-08-22T00:35:45.132Z,0.00
2022-08-22T00:36:47.940Z,0.00
2022-08-22T00:37:51.763Z,0.00
2022-08-22T00:38:56.055Z,0.00
2022-08-22T00:40:03.401Z,0.00
2022-08-22T00:41:04.836Z,0.00
2022-08-22T00:42:09.239Z,0.00
2022-08-22T00:43:13.617Z,0.00
2022-08-22T00:44:17.994Z,0.00
2022-08-22T00:45:22.367Z,0.00
2022-08-22T00:46:26.776Z,0.00
2022-08-22T00:47:31.160Z,0.00
2022-08-22T00:48:35.529Z,0.00
2022-08-22T00:49:39.905Z,0.00
2022-08-22T00:50:44.280Z,0.00
2022-08-22T00:51:48.688Z,0.00
2022-08-22T00:52:53.709Z,0.00
2022-08-22T00:53:57.448Z,0.00
2022-08-22T00:55:01.842Z,0.00
2022-08-22T00:56:06.207Z,0.00
2022-08-22T00:57:10.622Z,0.00
2022-08-22T00:58:14.998Z,0.00
2022-08-22T00:59:23.768Z,0.00
2022-08-22T01:00:23.766Z,0.00
2022-08-22T01:01:28.214Z,0.00
2022-08-22T01:02:32.570Z,0.00
2022-08-22T01:03:36.929Z,0.00
2022-08-22T01:04:41.321Z,0.00
2022-08-22T01:05:45.712Z,0.00
2022-08-22T01:06:50.107Z,0.00
2022-08-22T01:07:54.481Z,0.00
2022-08-22T01:08:58.871Z,0.00
2022-08-22T01:10:03.252Z,0.00
2022-08-22T01:11:07.653Z,0.00
2022-08-22T01:12:12.028Z,0.00
2022-08-22T01:13:16.400Z,0.00
2022-08-22T01:14:20.780Z,0.00
2022-08-22T01:15:25.170Z,0.00
2022-08-22T01:16:29.566Z,0.00
2022-08-22T01:17:33.949Z,0.00
2022-08-22T01:18:38.321Z,0.00
2022-08-22T01:19:42.698Z,0.00
2022-08-22T01:20:47.080Z,0.00
2022-08-22T01:21:51.480Z,0.00
2022-08-22T01:22:55.852Z,0.00
2022-08-22T01:24:00.233Z,0.00
2022-08-22T01:25:04.601Z,0.00
2022-08-22T01:26:09.867Z,0.00
2022-08-22T01:27:13.388Z,0.00
2022-08-22T01:28:17.763Z,0.00
2022-08-22T01:29:28.305Z,0.00
2022-08-22T01:30:26.530Z,0.00
2022-08-22T01:31:30.930Z,0.00
2022-08-22T01:32:35.304Z,0.00
2022-08-22T01:33:39.685Z,0.00
2022-08-22T01:34:44.082Z,0.00
2022-08-22T01:35:48.451Z,0.00
2022-08-22T01:36:52.853Z,0.00
2022-08-22T01:37:57.440Z,0.00
2022-08-22T01:39:01.625Z,0.00
2022-08-22T01:40:06.068Z,0.00
2022-08-22T01:41:10.512Z,0.00
2022-08-22T01:42:15.244Z,0.00
2022-08-22T01:43:19.176Z,0.00
2022-08-22T01:44:23.562Z,0.00
2022-08-22T01:45:27.944Z,0.00
2022-08-22T01:46:32.326Z,0.00
2022-08-22T01:47:37.640Z,0.00
2022-08-22T01:48:41.117Z,0.00
2022-08-22T01:49:45.498Z,0.00
2022-08-22T01:50:49.878Z,0.00
2022-08-22T01:51:54.296Z,0.00
2022-08-22T01:52:58.677Z,0.00
2022-08-22T01:54:03.071Z,0.00
2022-08-22T01:55:07.445Z,0.00
2022-08-22T01:56:11.837Z,0.00
2022-08-22T01:57:16.257Z,0.00
2022-08-22T01:58:20.641Z,0.00
2022-08-22T01:59:33.685Z,0.00
2022-08-22T02:00:34.781Z,0.00
2022-08-22T02:01:33.819Z,0.00
2022-08-22T02:02:38.217Z,0.00
2022-08-22T02:03:42.591Z,0.00
2022-08-22T02:04:46.989Z,0.00
2022-08-22T02:05:51.391Z,0.00
2022-08-22T02:06:55.770Z,0.00
2022-08-22T02:08:00.474Z,0.00
2022-08-22T02:09:04.586Z,0.00
2022-08-22T02:10:08.977Z,0.00
2022-08-22T02:11:13.359Z,0.00
2022-08-22T02:12:21.652Z,0.00
2022-08-22T02:13:22.158Z,0.00
2022-08-22T02:14:26.547Z,0.00
2022-08-22T02:15:30.929Z,0.00
2022-08-22T02:16:35.323Z,0.00
2022-08-22T02:17:39.729Z,0.00
2022-08-22T02:18:44.124Z,0.00
2022-08-22T02:19:48.497Z,0.00
2022-08-22T02:20:52.878Z,0.00
2022-08-22T02:21:57.253Z,0.00
2022-08-22T02:23:01.667Z,0.00
2022-08-22T02:24:06.043Z,0.00
2022-08-22T02:25:10.425Z,0.00
2022-08-22T02:26:14.799Z,0.00
2022-08-22T02:27:19.181Z,0.00
2022-08-22T02:28:23.580Z,0.00
2022-08-22T02:29:27.968Z,0.00
2022-08-22T02:30:32.341Z,0.00
2022-08-22T02:31:36.755Z,0.00
2022-08-22T02:32:41.130Z,0.00
2022-08-22T02:33:45.519Z,0.00
2022-08-22T02:34:49.894Z,0.00
2022-08-22T02:35:54.276Z,0.00
2022-08-22T02:36:58.661Z,0.00
2022-08-22T02:38:03.076Z,0.00
2022-08-22T02:39:07.462Z,0.00
2022-08-22T02:40:11.905Z,0.00
2022-08-22T02:41:16.214Z,0.00
2022-08-22T02:42:20.594Z,0.00
2022-08-22T02:43:25.006Z,0.00
2022-08-22T02:44:29.387Z,0.00
2022-08-22T02:45:33.764Z,0.00
2022-08-22T02:46:38.148Z,0.00
2022-08-22T02:47:42.555Z,0.00
2022-08-22T02:48:46.943Z,0.00
2022-08-22T02:49:51.341Z,0.00
2022-08-22T02:50:55.724Z,0.00
2022-08-22T02:52:00.109Z,0.00
2022-08-22T02:53:04.519Z,0.00
2022-08-22T02:54:08.908Z,0.00
2022-08-22T02:55:13.296Z,0.00
2022-08-22T02:56:17.676Z,0.00
2022-08-22T02:57:22.218Z,0.00
2022-08-22T02:58:26.466Z,0.00
2022-08-22T02:59:30.865Z,0.00
2022-08-22T03:00:35.289Z,0.00
2022-08-22T03:01:40.717Z,0.00
2022-08-22T03:02:44.008Z,0.00
2022-08-22T03:03:48.417Z,0.00
2022-08-22T03:04:52.801Z,0.00
2022-08-22T03:06:01.002Z,0.00
2022-08-22T03:07:01.576Z,0.00
2022-08-22T03:08:05.989Z,0.00
2022-08-22T03:09:10.368Z,0.00
2022-08-22T03:10:14.749Z,0.00
2022-08-22T03:11:19.149Z,0.00
2022-08-22T03:12:23.518Z,0.00
2022-08-22T03:13:27.918Z,0.00
2022-08-22T03:14:32.298Z,0.00
2022-08-22T03:15:36.687Z,0.00
2022-08-22T03:16:41.058Z,0.00
2022-08-22T03:17:45.463Z,0.00
2022-08-22T03:18:49.870Z,0.00
2022-08-22T03:19:54.250Z,0.00
2022-08-22T03:20:58.629Z,0.00
2022-08-22T03:22:03.017Z,0.00
2022-08-22T03:23:07.396Z,0.00
2022-08-22T03:24:11.801Z,0.00
2022-08-22T03:25:16.182Z,0.00
2022-08-22T03:26:20.572Z,0.00
2022-08-22T03:27:32.178Z,0.00
2022-08-22T03:28:29.354Z,0.00
2022-08-22T03:29:33.742Z,0.00
2022-08-22T03:30:38.153Z,0.00
2022-08-22T03:31:42.492Z,0.00
2022-08-22T03:32:46.890Z,0.00
2022-08-22T03:33:52.233Z,0.00
2022-08-22T03:34:56.611Z,0.00
2022-08-22T03:36:01.002Z,0.00
2022-08-22T03:37:05.386Z,0.00
2022-08-22T03:38:09.767Z,0.00
2022-08-22T03:39:17.349Z,0.00
2022-08-22T03:40:18.585Z,0.00
2022-08-22T03:41:22.943Z,0.00
2022-08-22T03:42:27.347Z,0.00
2022-08-22T03:43:31.743Z,0.00
2022-08-22T03:44:36.135Z,0.00
2022-08-22T03:45:40.537Z,0.00
2022-08-22T03:46:44.913Z,0.00
2022-08-22T03:47:49.300Z,0.00
2022-08-22T03:48:53.704Z,0.00
2022-08-22T03:49:59.713Z,0.00
2022-08-22T03:51:02.485Z,0.00
2022-08-22T03:52:06.865Z,0.00
2022-08-22T03:53:18.631Z,4.00
2022-08-22T03:54:15.663Z,4.00
2022-08-22T03:55:20.044Z,4.00
2022-08-22T03:56:24.443Z,0.00
2022-08-22T03:57:28.825Z,4.00
2022-08-22T03:58:33.233Z,4.00
2022-08-22T03:59:42.521Z,8.00
2022-08-22T04:00:42.179Z,4.00
2022-08-22T04:01:46.465Z,8.00
2022-08-22T04:02:50.856Z,8.00
2022-08-22T04:03:55.267Z,8.00
2022-08-22T04:04:59.665Z,12.00
2022-08-22T04:06:04.046Z,16.00
2022-08-22T04:07:28.011Z,12.00
2022-08-22T04:08:13.158Z,16.00
2022-08-22T04:09:17.217Z,20.00
2022-08-22T04:10:21.602Z,28.00
2022-08-22T04:11:25.978Z,32.00
2022-08-22T04:12:30.374Z,36.00
2022-08-22T04:13:34.778Z,40.00
2022-08-22T04:14:39.159Z,48.00
2022-08-22T04:15:43.555Z,52.00
2022-08-22T04:16:47.953Z,64.00
2022-08-22T04:17:52.375Z,72.00
2022-08-22T04:18:56.728Z,84.00
2022-08-22T04:20:01.119Z,96.00
2022-08-22T04:21:05.491Z,108.00
2022-08-22T04:22:09.880Z,124.00
2022-08-22T04:23:14.309Z,136.00
2022-08-22T04:24:18.670Z,152.00
2022-08-22T04:25:23.050Z,176.00
2022-08-22T04:26:27.429Z,196.00
2022-08-22T04:27:31.829Z,208.00
2022-08-22T04:28:36.238Z,224.00
2022-08-22T04:29:40.616Z,248.00
2022-08-22T04:30:45.017Z,260.00
2022-08-22T04:31:49.394Z,280.00
2022-08-22T04:32:53.785Z,312.00
2022-08-22T04:33:58.180Z,328.00
2022-08-22T04:35:02.570Z,352.00
2022-08-22T04:36:06.950Z,368.00
2022-08-22T04:37:11.332Z,384.00
2022-08-22T04:38:15.712Z,424.00
2022-08-22T04:39:20.122Z,464.00
2022-08-22T04:40:24.621Z,488.00
2022-08-22T04:41:28.903Z,500.00
2022-08-22T04:42:33.596Z,572.00
2022-08-22T04:43:37.694Z,564.00
2022-08-22T04:59:49.293Z,1020.00
2022-08-22T05:00:53.712Z,1024.00
2022-08-22T05:01:58.258Z,1052.00
2022-08-22T05:03:02.640Z,1068.00
2022-08-22T05:04:07.062Z,1108.00
2022-08-22T05:05:13.486Z,1132.00
2022-08-22T05:06:15.853Z,1132.00
2022-08-22T05:07:20.255Z,1204.00
2022-08-22T05:08:24.662Z,1252.00
2022-08-22T05:09:29.051Z,1304.00
2022-08-22T05:10:33.449Z,1232.00
2022-08-22T05:11:37.845Z,1296.00
2022-08-22T05:12:42.223Z,1408.00
2022-08-22T05:13:46.635Z,1452.00
2022-08-22T05:14:51.015Z,1488.00
2022-08-22T05:15:55.422Z,1516.00
2022-08-22T05:16:59.804Z,1556.00
2022-08-22T05:18:04.204Z,1628.00
2022-08-22T05:19:12.023Z,1656.00
2022-08-22T05:20:13.015Z,1688.00
2022-08-22T05:21:17.391Z,1776.00
2022-08-22T05:22:21.784Z,1820.00
2022-08-22T05:23:26.194Z,1816.00
2022-08-22T05:24:30.596Z,1884.00
2022-08-22T05:25:34.989Z,1960.00
2022-08-22T05:26:39.365Z,1904.00
2022-08-22T05:27:43.745Z,1924.00
2022-08-22T05:28:52.522Z,1980.00
2022-08-22T05:29:52.527Z,2032.00
2022-08-22T05:30:56.913Z,2104.00
2022-08-22T05:32:01.285Z,1964.00
2022-08-22T05:33:05.664Z,2032.00
2022-08-22T05:34:10.055Z,1984.00
2022-08-22T05:35:14.468Z,2092.00
2022-08-22T05:36:18.847Z,2208.00
2022-08-22T05:37:23.228Z,2268.00
2022-08-22T05:38:27.777Z,2248.00
2022-08-22T05:39:33.011Z,2164.00
2022-08-22T05:40:38.033Z,2200.00
2022-08-22T05:41:42.375Z,2276.00
2022-08-22T05:42:46.878Z,2204.00
2022-08-22T05:43:51.198Z,2220.00
2022-08-22T05:44:55.568Z,2228.00
2022-08-22T05:46:00.015Z,2244.00
2022-08-22T05:47:04.517Z,2276.00
2022-08-22T05:48:08.777Z,2360.00
2022-08-22T05:49:13.208Z,2360.00
2022-08-22T05:50:17.625Z,2492.00
2022-08-22T05:51:22.012Z,2504.00
2022-08-22T05:52:26.425Z,2652.00
2022-08-22T05:53:30.962Z,2888.00
2022-08-22T05:54:35.450Z,3036.00
2022-08-22T05:55:39.870Z,3076.00
2022-08-22T05:56:44.549Z,2828.00
2022-08-22T05:57:49.210Z,2940.00
2022-08-22T05:58:53.640Z,2960.00
2022-08-22T05:59:58.020Z,3036.00
2022-08-22T06:01:02.459Z,3080.00
2022-08-22T06:02:08.955Z,3024.00
2022-08-22T06:03:15.208Z,2992.00
2022-08-22T06:04:19.612Z,2988.00
2022-08-22T06:05:23.993Z,2936.00
2022-08-22T06:06:28.386Z,3052.00
2022-08-22T06:07:32.742Z,3204.00
2022-08-22T06:08:37.164Z,3252.00
2022-08-22T06:09:41.591Z,3392.00
2022-08-22T06:10:48.189Z,3288.00
2022-08-22T06:11:52.260Z,3600.00
2022-08-22T06:12:56.441Z,3668.00
2022-08-22T06:14:00.829Z,3496.00
2022-08-22T06:15:11.800Z,3872.00
2022-08-22T06:16:09.622Z,3836.00
2022-08-22T06:17:14.004Z,3844.00
2022-08-22T06:18:18.422Z,3848.00
2022-08-22T06:20:49.182Z,3808.00
2022-08-22T06:21:54.414Z,3808.00
2022-08-22T06:22:58.995Z,3760.00
2022-08-22T06:24:03.434Z,3668.00
2022-08-22T06:25:07.915Z,3680.00
2022-08-22T06:26:20.542Z,3664.00
2022-08-22T06:27:16.902Z,3692.00
2022-08-22T06:28:21.365Z,3636.00
2022-08-22T06:29:25.854Z,3528.00
2022-08-22T06:30:31.245Z,3556.00
2022-08-22T06:31:35.704Z,3560.00
2022-08-22T06:32:59.368Z,3576.00
2022-08-22T06:33:45.918Z,3596.00
2022-08-22T06:34:49.085Z,3592.00
2022-08-22T06:35:53.573Z,3636.00
2022-08-22T06:36:58.010Z,3760.00
2022-08-22T06:38:02.456Z,3780.00
2022-08-22T06:39:06.910Z,3772.00
2022-08-22T06:40:11.403Z,3784.00
2022-08-22T06:41:15.840Z,3796.00
2022-08-22T06:42:20.289Z,3772.00
2022-08-22T06:43:24.749Z,3772.00
2022-08-22T06:44:29.229Z,3772.00
2022-08-22T06:45:33.695Z,3784.00
2022-08-22T06:46:38.136Z,3848.00
2022-08-22T06:47:43.485Z,3876.00
2022-08-22T06:48:47.183Z,3908.00
2022-08-22T06:49:51.619Z,4044.00
2022-08-22T06:50:56.070Z,4008.00
2022-08-22T06:52:00.542Z,4076.00
2022-08-22T06:53:04.986Z,4140.00
2022-08-22T06:54:09.530Z,4092.00
2022-08-22T06:55:14.069Z,4136.00
2022-08-22T06:56:18.538Z,4344.00
2022-08-22T06:57:23.070Z,4528.00
2022-08-22T06:58:32.841Z,4592.00
2022-08-22T06:59:31.985Z,4600.00
2022-08-22T07:00:36.464Z,4604.00
2022-08-22T07:01:40.935Z,4552.00
2022-08-22T07:02:45.350Z,4376.00
2022-08-22T07:03:50.740Z,4188.00
2022-08-22T07:04:55.261Z,4044.00
2022-08-22T07:05:59.691Z,4160.00
2022-08-22T07:07:08.372Z,4132.00
2022-08-22T07:08:12.834Z,4096.00
2022-08-22T07:09:17.357Z,4100.00
2022-08-22T07:10:21.845Z,4120.00
2022-08-22T07:11:26.298Z,4008.00
2022-08-22T07:12:30.743Z,4172.00
2022-08-22T07:13:37.131Z,4384.00
2022-08-22T07:14:42.501Z,4508.00
2022-08-22T07:15:46.970Z,4452.00
2022-08-22T07:16:51.431Z,4608.00
2022-08-22T07:17:55.919Z,4512.00
2022-08-22T07:19:00.363Z,4524.00
2022-08-22T07:20:04.804Z,4620.00
2022-08-22T07:21:09.376Z,4768.00
2022-08-22T07:22:13.734Z,4768.00
2022-08-22T07:23:18.172Z,4712.00
2022-08-22T07:24:22.617Z,4752.00
2022-08-22T07:25:27.096Z,4808.00
2022-08-22T07:26:31.556Z,4836.00
2022-08-22T07:27:35.992Z,4832.00
2022-08-22T07:28:51.092Z,4848.00
2022-08-22T07:29:44.906Z,4796.00
2022-08-22T07:30:49.372Z,4772.00
2022-08-22T07:31:53.812Z,4680.00
2022-08-22T07:32:58.824Z,4708.00
2022-08-22T07:34:02.695Z,4716.00
2022-08-22T07:35:07.187Z,4732.00
2022-08-22T07:36:11.664Z,4728.00
2022-08-22T07:37:16.230Z,4708.00
2022-08-22T07:38:21.399Z,4720.00
2022-08-22T07:39:25.832Z,4732.00
2022-08-22T07:40:30.302Z,4736.00
2022-08-22T07:41:35.556Z,4752.00
2022-08-22T07:42:44.170Z,4728.00
2022-08-22T07:43:49.556Z,4736.00
2022-08-22T07:46:23.272Z,4732.00
2022-08-22T07:50:33.551Z,4648.00
2022-08-22T07:54:30.067Z,4696.00
2022-08-22T07:55:35.005Z,4732.00
2022-08-22T07:56:39.584Z,4804.00
2022-08-22T07:57:46.241Z,4800.00
2022-08-22T07:58:55.546Z,4856.00
2022-08-22T08:01:27.049Z,4880.00
2022-08-22T08:02:31.675Z,4976.00
2022-08-22T08:03:36.090Z,5024.00
2022-08-22T08:04:40.841Z,5080.00
2022-08-22T08:05:45.431Z,5072.00
2022-08-22T08:06:49.870Z,5132.00
2022-08-22T08:07:54.379Z,5156.00
2022-08-22T08:08:58.860Z,5244.00
2022-08-22T08:10:04.428Z,5308.00
2022-08-22T08:11:09.265Z,5316.00
2022-08-22T08:12:13.705Z,5568.00
2022-08-22T08:13:20.193Z,5760.00
2022-08-22T08:14:24.701Z,5980.00
2022-08-22T08:15:29.562Z,5828.00
2022-08-22T08:16:34.497Z,5624.00
2022-08-22T08:17:41.960Z,5492.00
2022-08-22T08:18:46.734Z,5724.00
2022-08-22T08:19:51.172Z,5920.00
2022-08-22T08:20:56.020Z,5800.00
2022-08-22T08:26:45.400Z,6260.00
2022-08-22T08:27:51.263Z,6168.00
2022-08-22T08:28:55.331Z,6144.00
2022-08-22T08:29:59.943Z,6492.00
2022-08-22T08:31:04.774Z,6516.00
2022-08-22T08:35:01.028Z,6836.00
2022-08-22T08:36:05.511Z,6776.00
2022-08-22T08:37:12.715Z,6840.00
2022-08-22T08:38:16.241Z,6896.00
2022-08-22T08:39:20.969Z,6912.00
2022-08-22T08:41:51.535Z,7008.00
2022-08-22T08:42:56.820Z,6968.00
2022-08-22T08:44:01.097Z,6932.00
2022-08-22T08:45:05.777Z,6972.00
2022-08-22T08:46:10.161Z,6996.00
2022-08-22T08:47:14.647Z,6984.00
2022-08-22T08:49:44.998Z,7052.00
2022-08-22T08:52:16.210Z,6964.00
2022-08-22T08:53:21.881Z,6980.00
2022-08-22T08:54:26.284Z,7020.00
2022-08-22T08:55:32.534Z,6880.00
2022-08-22T08:58:34.069Z,7252.00
2022-08-22T09:01:44.829Z,7272.00
2022-08-22T09:02:49.211Z,7000.00
2022-08-22T09:03:53.906Z,7008.00
2022-08-22T09:04:58.389Z,7004.00
2022-08-22T09:06:02.762Z,7004.00
2022-08-22T09:07:07.284Z,6836.00
2022-08-22T09:08:15.742Z,6796.00
2022-08-22T09:09:20.199Z,6292.00
2022-08-22T09:10:27.384Z,6272.00
2022-08-22T09:11:29.551Z,6528.00
2022-08-22T09:12:34.020Z,6180.00
2022-08-22T09:13:40.862Z,6272.00
2022-08-22T09:14:44.457Z,6184.00
2022-08-22T09:15:58.608Z,5948.00
2022-08-22T09:16:51.975Z,5504.00
2022-08-22T09:17:56.381Z,5892.00
2022-08-22T09:19:00.843Z,5780.00
2022-08-22T09:20:15.400Z,5628.00
2022-08-22T09:21:09.751Z,5612.00
2022-08-22T09:22:14.993Z,5628.00
2022-08-22T09:23:18.756Z,5448.00
2022-08-22T09:24:23.422Z,5956.00
2022-08-22T09:25:38.656Z,5728.00
2022-08-22T09:26:32.185Z,5448.00
2022-08-22T09:27:36.715Z,5632.00
2022-08-22T09:28:41.333Z,5472.00
2022-08-22T09:29:54.962Z,5420.00
2022-08-22T09:30:54.340Z,5360.00
2022-08-22T09:31:59.679Z,5936.00
2022-08-22T09:32:59.496Z,5316.00
2022-08-22T09:34:05.239Z,5320.00
2022-08-22T09:35:08.533Z,5348.00
2022-08-22T09:36:13.092Z,5472.00
2022-08-22T09:37:17.704Z,5516.00
2022-08-22T09:38:21.935Z,5656.00
2022-08-22T09:39:26.387Z,5640.00
2022-08-22T09:40:31.184Z,5884.00
2022-08-22T09:41:37.532Z,5676.00
2022-08-22T09:42:44.952Z,5952.00
2022-08-22T09:45:12.388Z,6484.00
2022-08-22T09:46:16.850Z,6592.00
2022-08-22T09:47:24.552Z,6720.00
2022-08-22T09:48:26.659Z,6880.00
2022-08-22T09:49:30.255Z,6972.00
2022-08-22T09:50:34.717Z,7684.00
2022-08-22T09:51:39.191Z,7124.00
2022-08-22T09:52:43.857Z,6976.00
2022-08-22T09:53:48.445Z,6932.00
2022-08-22T09:54:53.319Z,7076.00
2022-08-22T09:55:57.948Z,7228.00
2022-08-22T09:57:02.643Z,7072.00
2022-08-22T09:58:16.339Z,7004.00
2022-08-22T10:00:54.817Z,7424.00
2022-08-22T10:01:53.630Z,6908.00
2022-08-22T10:02:58.856Z,6936.00
2022-08-22T10:06:55.151Z,7232.00
2022-08-22T10:08:00.830Z,6884.00
2022-08-22T10:09:05.682Z,7008.00
2022-08-22T10:13:10.321Z,6804.00
2022-08-22T10:14:13.535Z,6696.00
2022-08-22T10:15:18.485Z,6696.00
2022-08-22T10:16:23.115Z,6464.00
2022-08-22T10:17:28.087Z,6484.00
2022-08-22T10:18:32.621Z,6192.00
2022-08-22T10:21:03.352Z,6228.00
2022-08-22T10:22:07.898Z,5988.00
2022-08-22T10:23:12.362Z,6120.00
2022-08-22T10:24:25.716Z,6216.00
2022-08-22T10:25:23.186Z,5928.00
2022-08-22T10:26:29.686Z,6028.00
2022-08-22T10:45:36.148Z,5800.00
2022-08-22T10:46:33.366Z,5672.00
2022-08-22T10:47:37.826Z,5752.00
2022-08-22T10:48:42.251Z,5740.00
2022-08-22T10:49:46.696Z,5732.00
2022-08-22T10:50:51.096Z,5736.00
2022-08-22T10:51:55.563Z,5772.00
2022-08-22T10:53:00.285Z,5772.00
2022-08-22T10:54:04.490Z,5764.00
2022-08-22T10:55:09.808Z,5792.00
2022-08-22T10:56:13.396Z,5780.00
2022-08-22T10:57:20.584Z,5824.00
2022-08-22T10:58:22.297Z,6012.00
2022-08-22T10:59:26.787Z,6016.00
2022-08-22T11:00:31.263Z,6016.00
2022-08-22T11:01:41.823Z,6028.00
2022-08-22T11:02:44.707Z,6040.00
2022-08-22T11:03:44.470Z,6024.00
2022-08-22T11:04:48.907Z,5976.00
2022-08-22T11:05:53.330Z,5944.00
2022-08-22T11:06:57.769Z,5952.00
2022-08-22T11:08:02.211Z,5980.00
2022-08-22T11:09:06.640Z,5968.00
2022-08-22T11:10:11.067Z,5976.00
2022-08-22T11:11:15.489Z,5944.00
2022-08-22T11:12:19.919Z,5944.00
2022-08-22T11:13:24.388Z,5944.00
2022-08-22T11:14:28.830Z,5948.00
2022-08-22T11:15:34.924Z,5936.00
2022-08-22T11:16:41.531Z,5940.00
2022-08-22T11:17:53.882Z,5888.00
2022-08-22T11:18:58.631Z,5864.00
2022-08-22T11:19:51.126Z,5864.00
2022-08-22T11:20:55.542Z,6012.00
2022-08-22T11:21:59.959Z,6008.00
2022-08-22T11:23:04.449Z,5960.00
2022-08-22T11:24:08.852Z,5928.00
2022-08-22T11:25:13.430Z,6000.00
2022-08-22T11:26:33.769Z,6088.00
2022-08-22T11:27:37.679Z,6132.00
2022-08-22T11:28:26.751Z,6144.00
2022-08-22T11:29:31.171Z,6140.00
2022-08-22T11:30:36.443Z,6172.00
2022-08-22T11:31:40.007Z,6164.00
2022-08-22T11:32:44.416Z,6196.00
2022-08-22T11:33:48.859Z,6276.00
2022-08-22T11:34:53.262Z,6296.00
2022-08-22T11:35:57.714Z,6320.00
2022-08-22T11:37:02.133Z,6296.00
2022-08-22T11:38:06.561Z,6296.00
2022-08-22T11:39:18.084Z,6368.00
2022-08-22T11:40:15.508Z,6500.00
2022-08-22T11:41:19.862Z,6308.00
2022-08-22T11:42:24.274Z,6300.00
2022-08-22T11:43:28.733Z,6396.00
2022-08-22T11:44:34.351Z,6400.00
2022-08-22T11:45:37.566Z,6556.00
2022-08-22T11:46:42.005Z,6580.00
2022-08-22T11:47:46.415Z,6596.00
2022-08-22T11:48:50.856Z,6616.00
2022-08-22T11:49:55.278Z,6636.00
2022-08-22T11:50:59.700Z,6716.00
2022-08-22T11:52:04.120Z,6804.00
2022-08-22T11:53:08.604Z,6776.00
2022-08-22T11:54:13.045Z,6804.00
2022-08-22T11:55:17.661Z,6796.00
2022-08-22T11:56:21.875Z,6900.00
2022-08-22T11:57:26.289Z,6916.00
2022-08-22T11:58:30.755Z,6956.00
2022-08-22T11:59:40.042Z,7060.00
2022-08-22T12:00:39.625Z,7208.00
2022-08-22T12:01:44.096Z,7204.00
2022-08-22T12:02:48.480Z,7288.00
2022-08-22T12:03:58.376Z,7392.00
2022-08-22T12:04:57.349Z,7280.00
2022-08-22T12:06:01.777Z,7372.00
2022-08-22T12:07:06.200Z,7548.00
2022-08-22T12:08:10.609Z,7392.00
2022-08-22T12:09:15.099Z,7900.00
2022-08-22T12:10:19.519Z,7924.00
2022-08-22T12:11:23.931Z,7964.00
2022-08-22T12:12:28.399Z,8024.00
2022-08-22T12:13:34.256Z,7900.00
2022-08-22T12:14:37.287Z,8140.00
2022-08-22T12:15:41.699Z,8020.00
2022-08-22T12:16:47.394Z,8040.00
2022-08-22T12:17:54.976Z,8028.00
2022-08-22T12:18:55.057Z,8040.00
2022-08-22T12:20:16.055Z,8476.00
2022-08-22T12:21:03.920Z,8996.00
2022-08-22T12:22:08.330Z,8984.00
2022-08-22T12:23:12.770Z,9464.00
2022-08-22T12:24:19.190Z,9492.00
2022-08-22T12:25:22.624Z,9648.00
2022-08-22T12:26:26.122Z,9980.00
2022-08-22T12:27:30.557Z,10216.00
2022-08-22T12:28:35.001Z,10164.00
2022-08-22T12:29:39.946Z,10180.00
2022-08-22T12:30:43.901Z,10304.00
2022-08-22T12:31:48.321Z,10696.00
2022-08-22T12:32:52.785Z,11044.00
2022-08-22T12:33:57.240Z,11304.00
2022-08-22T12:35:01.691Z,11472.00
2022-08-22T12:36:06.280Z,10740.00
2022-08-22T12:37:10.683Z,10064.00
2022-08-22T12:38:28.013Z,10520.00
2022-08-22T12:39:19.602Z,11660.00
2022-08-22T12:40:26.437Z,12220.00
2022-08-22T12:41:35.266Z,10592.00
2022-08-22T12:42:33.043Z,10640.00
2022-08-22T12:43:44.522Z,10976.00
2022-08-22T12:46:14.774Z,12012.00
2022-08-22T12:47:19.204Z,12192.00
2022-08-22T12:48:23.651Z,12360.00
2022-08-22T12:49:28.167Z,11968.00
2022-08-22T12:50:33.615Z,11832.00
2022-08-22T12:51:38.078Z,11688.00
2022-08-22T12:52:42.522Z,11916.00
2022-08-22T12:53:46.974Z,10288.00
2022-08-22T12:54:51.422Z,10252.00
2022-08-22T12:55:55.850Z,10416.00
2022-08-22T12:57:00.286Z,9960.00
2022-08-22T12:58:04.907Z,11056.00
2022-08-22T12:59:09.195Z,9984.00
2022-08-22T13:00:13.637Z,10208.00
2022-08-22T13:01:18.130Z,10112.00
2022-08-22T13:02:22.498Z,10696.00
2022-08-22T13:03:26.927Z,10328.00
2022-08-22T13:04:33.529Z,10424.00
2022-08-22T13:05:40.522Z,9808.00
2022-08-22T13:06:44.155Z,9176.00
2022-08-22T13:07:48.596Z,9072.00
2022-08-22T13:08:53.049Z,9472.00
2022-08-22T13:09:57.476Z,9852.00
2022-08-22T13:11:01.906Z,10016.00
2022-08-22T13:12:10.297Z,10340.00
2022-08-22T13:13:14.726Z,10544.00
2022-08-22T13:14:21.949Z,10692.00
2022-08-22T13:15:23.628Z,10744.00
2022-08-22T13:16:28.058Z,11156.00
2022-08-22T13:17:32.488Z,11956.00
2022-08-22T13:18:36.918Z,13784.00
2022-08-22T13:19:41.378Z,13424.00
2022-08-22T13:20:45.808Z,14708.00
2022-08-22T13:21:54.229Z,14060.00
2022-08-22T13:22:58.806Z,14860.00
2022-08-22T13:24:03.268Z,12528.00
2022-08-22T13:25:08.652Z,11896.00
2022-08-22T13:26:12.159Z,11312.00
2022-08-22T13:27:16.611Z,11008.00
2022-08-22T13:28:21.057Z,10968.00
2022-08-22T13:29:26.912Z,18976.00
2022-08-22T13:30:29.954Z,10548.00
2022-08-22T13:31:34.392Z,9736.00
2022-08-22T13:32:38.851Z,9592.00
2022-08-22T13:33:43.290Z,9420.00
2022-08-22T13:34:47.739Z,9228.00
2022-08-22T13:35:52.939Z,9084.00
2022-08-22T13:36:57.362Z,9176.00
2022-08-22T13:38:01.937Z,9132.00
2022-08-22T13:39:06.601Z,9632.00
2022-08-22T13:40:10.852Z,9716.00
2022-08-22T13:41:15.191Z,9500.00
2022-08-22T13:42:20.317Z,9156.00
2022-08-22T13:43:24.082Z,9044.00
2022-08-22T13:44:28.593Z,11564.00
2022-08-22T13:45:33.023Z,22304.00
2022-08-22T13:46:48.171Z,21888.00
2022-08-22T13:47:41.913Z,9384.00
2022-08-22T13:48:46.722Z,8344.00
2022-08-22T13:49:50.844Z,7100.00
2022-08-22T13:50:55.282Z,6160.00
2022-08-22T13:51:59.959Z,5908.00
2022-08-22T13:53:04.391Z,5372.00
2022-08-22T13:54:11.161Z,5132.00
2022-08-22T13:55:13.647Z,5044.00
2022-08-22T13:56:17.775Z,5036.00
2022-08-22T13:57:23.745Z,5080.00
2022-08-22T13:58:26.646Z,5188.00
2022-08-22T13:59:50.110Z,5292.00
2022-08-22T14:37:03.526Z,4016.00
